Terminal Aerodrome Forecast
Issued by NWS

Home | Current Version | Previous Version | Text Only | Print | Product List | Glossary On
Versions: 1 2 3 4 5 6 7 8 9 10 11 12 13
000
FTUS45 KVEF 052322
TAFBIH
TAF
KBIH 052322Z 0600/0624 16020G30KT P6SM SCT080 BKN200
     FM060200 16010G18KT P6SM VCSH BKN060 OVC120
     FM061000 17008KT P6SM SCT060 BKN120
     FM061900 17015G25KT P6SM VCTS BKN060CB BKN100=

USA.gov is the U.S. government's official web portal to all federal, state and local government web resources and services.